Atlantic - Newfoundland: Past 24 Hour Conditions

 

Blanc-Sablon Airport

09:00 PM AST 21 August 2014
This table is a summary of hourly weather conditions for the past 24 hours.
Date / Time
(AST)
Wind(knots) Conditions Visibility(km) Pressure(kPa) Air tempC) Relative humidity(%) Dew pointC)
21 August 2014
21:00 NNE 12 gust 20 Cloudy 24 101.9 14 82 11
20:00 N 16 gust 23 Partly Cloudy 24 101.9 15 80 11
19:00 N 12 gust 18 Mostly Cloudy 24 101.9 15 80 12
18:00 N 15 gust 21 Partly Cloudy 16 101.9 15 78 12
17:00 NNE 16 Cloudy 16 101.9 16 75 11
16:00 N 17 gust 23 Cloudy 16 101.8 16 75 11
15:00 N 14 gust 23 Cloudy 16 101.7 17 72 12
14:00 N 16 gust 23 Cloudy 16 101.7 17 73 12
13:00 N 20 gust 25 Cloudy 16 101.7 17 72 12
12:00 N 19 gust 29 Mostly Cloudy 16 101.6 16 74 12
11:00 N 18 gust 28 Light Drizzle 16 101.6 16 80 12
10:00 N 16 gust 23 Light Drizzle 8 101.7 15 82 12
9:00 N 12 gust 25 Cloudy 24 101.6 16 77 12
8:00 N 15 gust 25 Mostly Cloudy 24 101.6 16 77 11
7:00 E 12 Mostly Cloudy 24 101.6 15 79 11
6:00 NNE 12 Cloudy 24 101.6 15 83 12
5:00 NNE 10 Cloudy 24 101.5 15 84 12
4:00 N 15 gust 22 Mostly Cloudy 24 101.4 15 84 12
3:00 NNE 10 Mainly Clear 24 101.4 14 86 12
2:00 NNE 11 gust 18 Mainly Clear 24 101.4 14 87 12
1:00 NNE 16 gust 23 Partly Cloudy 24 101.4 15 84 12
0:00 NNE 12 gust 19 Partly Cloudy 24 101.4 15 85 12
20 August 2014
23:00 NNE 14 Partly Cloudy 24 101.4 15 83 12
22:00 NNE 10 gust 16 Partly Cloudy 24 101.4 15 84 12
21:00 NNE 11 Cloudy 24 101.4 15 85 13
 
Map of Atlantic - Newfoundland marine weather areas Southwestern Grand Banks - 44138 Banquereau - 44139 Tail of the Bank - 44140 Nickerson Bank - 44251 Northeast Burgeo Bank - 44255 Blanc-Sablon Airport Cap Whittle Chevery Natashquan Airport Heath Point Miscou Island Grand Étang Ingonish Beach North Mountain St.Paul Island J.A. Douglas McCurdy Sydney Airport Charlottetown Airport East Point North Cape Argentia Bonavista Burgeo Cape Race Corner Brook Daniel's Harbour Englee Ferolle Point La Scie Port aux Basques Rocky Harbour Sagona Island St. Anthony Airport St. John's Int'l Airport St. Lawrence Stephenville Airport Twillingate Winterland Wreckhouse Cartwright Airport Mary's Harbour Grates Cove Pool's Island Marticot Island Long Pond Îles de la Madeleine Airport
Legend: buoyBuoy land stationLand Station